sensor_id;sensor_type;location;lat;lon;timestamp;temperature;humidity
51021;DHT22;38907;45.562;8.856;2023-04-24T00:03:51;13.80;99.90
51021;DHT22;38907;45.562;8.856;2023-04-24T00:08:54;13.80;99.90
51021;DHT22;38907;45.562;8.856;2023-04-24T00:13:56;13.90;99.90
51021;DHT22;38907;45.562;8.856;2023-04-24T00:18:58;13.90;99.90
51021;DHT22;38907;45.562;8.856;2023-04-24T00:24:02;14.20;99.90
51021;DHT22;38907;45.562;8.856;2023-04-24T00:29:04;14.10;99.90
51021;DHT22;38907;45.562;8.856;2023-04-24T00:34:06;13.90;99.90
51021;DHT22;38907;45.562;8.856;2023-04-24T00:39:09;14.00;99.90
51021;DHT22;38907;45.562;8.856;2023-04-24T00:44:11;13.70;99.90
51021;DHT22;38907;45.562;8.856;2023-04-24T00:49:14;13.90;99.90
51021;DHT22;38907;45.562;8.856;2023-04-24T00:54:17;13.90;99.90
51021;DHT22;38907;45.562;8.856;2023-04-24T00:59:19;13.90;99.90
51021;DHT22;38907;45.562;8.856;2023-04-24T01:04:21;13.80;99.90
51021;DHT22;38907;45.562;8.856;2023-04-24T01:09:25;13.80;99.90
51021;DHT22;38907;45.562;8.856;2023-04-24T01:14:27;13.90;99.90
51021;DHT22;38907;45.562;8.856;2023-04-24T01:19:29;14.20;99.90
51021;DHT22;38907;45.562;8.856;2023-04-24T01:24:32;14.10;99.90
51021;DHT22;38907;45.562;8.856;2023-04-24T01:29:34;13.90;99.90
51021;DHT22;38907;45.562;8.856;2023-04-24T01:34:37;13.90;99.90
51021;DHT22;38907;45.562;8.856;2023-04-24T01:39:40;13.40;99.90
51021;DHT22;38907;45.562;8.856;2023-04-24T01:44:42;13.10;99.90
51021;DHT22;38907;45.562;8.856;2023-04-24T01:49:45;12.90;99.90
51021;DHT22;38907;45.562;8.856;2023-04-24T01:54:50;13.10;99.90
51021;DHT22;38907;45.562;8.856;2023-04-24T01:59:53;13.00;99.90
51021;DHT22;38907;45.562;8.856;2023-04-24T02:04:55;13.00;99.90
51021;DHT22;38907;45.562;8.856;2023-04-24T02:09:59;12.90;99.90
51021;DHT22;38907;45.562;8.856;2023-04-24T02:15:01;12.90;99.90
51021;DHT22;38907;45.562;8.856;2023-04-24T02:20:03;12.90;99.90
51021;DHT22;38907;45.562;8.856;2023-04-24T02:25:08;13.00;99.90
51021;DHT22;38907;45.562;8.856;2023-04-24T02:30:10;12.90;99.90
51021;DHT22;38907;45.562;8.856;2023-04-24T02:35:12;12.80;99.90
51021;DHT22;38907;45.562;8.856;2023-04-24T02:40:16;12.90;99.90
51021;DHT22;38907;45.562;8.856;2023-04-24T02:45:17;12.70;99.90
51021;DHT22;38907;45.562;8.856;2023-04-24T02:50:19;12.50;99.90
51021;DHT22;38907;45.562;8.856;2023-04-24T02:55:22;12.10;99.90
51021;DHT22;38907;45.562;8.856;2023-04-24T03:00:25;12.00;99.90
51021;DHT22;38907;45.562;8.856;2023-04-24T03:05:27;11.90;99.90
51021;DHT22;38907;45.562;8.856;2023-04-24T03:10:30;12.00;99.90
51021;DHT22;38907;45.562;8.856;2023-04-24T03:15:32;12.40;99.90
51021;DHT22;38907;45.562;8.856;2023-04-24T03:20:34;12.50;99.90
51021;DHT22;38907;45.562;8.856;2023-04-24T03:25:38;12.50;99.90
51021;DHT22;38907;45.562;8.856;2023-04-24T03:30:41;12.20;99.90
51021;DHT22;38907;45.562;8.856;2023-04-24T03:35:43;12.30;99.90
51021;DHT22;38907;45.562;8.856;2023-04-24T03:40:46;12.40;99.90
51021;DHT22;38907;45.562;8.856;2023-04-24T03:45:48;12.50;99.90
51021;DHT22;38907;45.562;8.856;2023-04-24T03:50:50;12.60;99.90
51021;DHT22;38907;45.562;8.856;2023-04-24T03:55:54;12.40;99.90
51021;DHT22;38907;45.562;8.856;2023-04-24T04:00:55;12.30;99.90
51021;DHT22;38907;45.562;8.856;2023-04-24T04:05:58;12.20;99.90
51021;DHT22;38907;45.562;8.856;2023-04-24T04:11:02;12.10;99.90
51021;DHT22;38907;45.562;8.856;2023-04-24T04:16:04;11.90;99.90
51021;DHT22;38907;45.562;8.856;2023-04-24T04:21:06;11.70;99.90
51021;DHT22;38907;45.562;8.856;2023-04-24T04:26:11;11.90;99.90
51021;DHT22;38907;45.562;8.856;2023-04-24T04:31:14;11.70;99.90
51021;DHT22;38907;45.562;8.856;2023-04-24T04:36:15;11.60;99.90
51021;DHT22;38907;45.562;8.856;2023-04-24T04:41:19;11.60;99.90
51021;DHT22;38907;45.562;8.856;2023-04-24T04:46:21;11.60;99.90
51021;DHT22;38907;45.562;8.856;2023-04-24T04:51:26;11.60;99.90
51021;DHT22;38907;45.562;8.856;2023-04-24T04:56:29;11.70;99.90
51021;DHT22;38907;45.562;8.856;2023-04-24T05:01:31;11.50;99.90
51021;DHT22;38907;45.562;8.856;2023-04-24T05:06:33;11.50;99.90
51021;DHT22;38907;45.562;8.856;2023-04-24T05:11:36;11.80;99.90
51021;DHT22;38907;45.562;8.856;2023-04-24T05:16:38;11.70;99.90
51021;DHT22;38907;45.562;8.856;2023-04-24T05:21:40;11.40;99.90
51021;DHT22;38907;45.562;8.856;2023-04-24T05:26:44;11.40;99.90
51021;DHT22;38907;45.562;8.856;2023-04-24T05:31:46;11.40;99.90
51021;DHT22;38907;45.562;8.856;2023-04-24T05:36:48;11.40;99.90
51021;DHT22;38907;45.562;8.856;2023-04-24T05:41:52;11.50;99.90
51021;DHT22;38907;45.562;8.856;2023-04-24T05:46:54;11.70;99.90
51021;DHT22;38907;45.562;8.856;2023-04-24T05:51:57;11.90;99.90
51021;DHT22;38907;45.562;8.856;2023-04-24T05:57:00;11.90;99.90
51021;DHT22;38907;45.562;8.856;2023-04-24T06:02:05;12.10;99.90
51021;DHT22;38907;45.562;8.856;2023-04-24T06:07:07;12.20;99.90
51021;DHT22;38907;45.562;8.856;2023-04-24T06:12:10;12.30;99.90
51021;DHT22;38907;45.562;8.856;2023-04-24T06:17:12;12.50;99.90
51021;DHT22;38907;45.562;8.856;2023-04-24T06:22:14;12.50;99.90
51021;DHT22;38907;45.562;8.856;2023-04-24T06:27:18;12.60;99.90
51021;DHT22;38907;45.562;8.856;2023-04-24T06:32:20;12.80;99.90
51021;DHT22;38907;45.562;8.856;2023-04-24T06:37:22;12.90;99.90
51021;DHT22;38907;45.562;8.856;2023-04-24T06:42:26;13.10;99.90
51021;DHT22;38907;45.562;8.856;2023-04-24T06:47:27;13.30;99.90
51021;DHT22;38907;45.562;8.856;2023-04-24T06:52:29;13.30;99.90
51021;DHT22;38907;45.562;8.856;2023-04-24T06:57:34;13.60;99.90
51021;DHT22;38907;45.562;8.856;2023-04-24T07:02:36;13.70;99.90
51021;DHT22;38907;45.562;8.856;2023-04-24T07:07:39;13.90;99.90
51021;DHT22;38907;45.562;8.856;2023-04-24T07:12:42;14.00;99.90
51021;DHT22;38907;45.562;8.856;2023-04-24T07:17:44;14.10;99.90
51021;DHT22;38907;45.562;8.856;2023-04-24T07:22:45;14.30;99.90
51021;DHT22;38907;45.562;8.856;2023-04-24T07:27:50;14.40;99.90
51021;DHT22;38907;45.562;8.856;2023-04-24T07:32:51;14.60;99.90
51021;DHT22;38907;45.562;8.856;2023-04-24T07:37:53;14.70;99.90
51021;DHT22;38907;45.562;8.856;2023-04-24T07:42:56;14.90;99.90
51021;DHT22;38907;45.562;8.856;2023-04-24T07:47:58;14.70;99.90
51021;DHT22;38907;45.562;8.856;2023-04-24T07:53:00;15.00;99.90
51021;DHT22;38907;45.562;8.856;2023-04-24T07:58:04;15.10;99.90
51021;DHT22;38907;45.562;8.856;2023-04-24T08:03:06;15.20;99.90
51021;DHT22;38907;45.562;8.856;2023-04-24T08:08:08;15.20;99.90
51021;DHT22;38907;45.562;8.856;2023-04-24T08:13:11;15.50;99.90
51021;DHT22;38907;45.562;8.856;2023-04-24T08:18:13;15.60;99.90
51021;DHT22;38907;45.562;8.856;2023-04-24T08:23:16;15.70;99.90
51021;DHT22;38907;45.562;8.856;2023-04-24T08:28:19;15.80;99.90
51021;DHT22;38907;45.562;8.856;2023-04-24T08:33:21;16.00;99.90
51021;DHT22;38907;45.562;8.856;2023-04-24T08:38:29;16.10;99.90
51021;DHT22;38907;45.562;8.856;2023-04-24T08:43:33;16.20;99.90
51021;DHT22;38907;45.562;8.856;2023-04-24T08:48:37;16.20;99.90
51021;DHT22;38907;45.562;8.856;2023-04-24T08:53:39;16.30;99.90
51021;DHT22;38907;45.562;8.856;2023-04-24T08:58:43;16.50;99.90
51021;DHT22;38907;45.562;8.856;2023-04-24T09:03:46;16.50;99.90
51021;DHT22;38907;45.562;8.856;2023-04-24T09:08:52;16.50;99.90
51021;DHT22;38907;45.562;8.856;2023-04-24T09:13:58;16.60;99.90
51021;DHT22;38907;45.562;8.856;2023-04-24T09:19:00;16.80;99.90
51021;DHT22;38907;45.562;8.856;2023-04-24T09:24:06;17.10;99.90
51021;DHT22;38907;45.562;8.856;2023-04-24T09:29:14;17.10;99.90
51021;DHT22;38907;45.562;8.856;2023-04-24T09:34:21;17.10;99.90
51021;DHT22;38907;45.562;8.856;2023-04-24T09:39:23;17.30;99.90
51021;DHT22;38907;45.562;8.856;2023-04-24T09:44:27;17.10;99.90
51021;DHT22;38907;45.562;8.856;2023-04-24T09:49:30;17.20;99.90
51021;DHT22;38907;45.562;8.856;2023-04-24T09:54:33;17.50;99.90
51021;DHT22;38907;45.562;8.856;2023-04-24T09:59:42;17.70;99.90
51021;DHT22;38907;45.562;8.856;2023-04-24T10:04:54;17.80;99.90
51021;DHT22;38907;45.562;8.856;2023-04-24T10:09:57;17.70;99.90
51021;DHT22;38907;45.562;8.856;2023-04-24T10:15:01;17.70;99.90
51021;DHT22;38907;45.562;8.856;2023-04-24T10:20:05;17.70;99.90
51021;DHT22;38907;45.562;8.856;2023-04-24T10:25:10;17.70;99.90
51021;DHT22;38907;45.562;8.856;2023-04-24T10:30:15;18.00;99.90
51021;DHT22;38907;45.562;8.856;2023-04-24T10:35:17;17.90;99.90
51021;DHT22;38907;45.562;8.856;2023-04-24T10:40:25;17.90;99.90
51021;DHT22;38907;45.562;8.856;2023-04-24T10:45:29;17.90;99.90
51021;DHT22;38907;45.562;8.856;2023-04-24T10:50:43;18.30;99.90
51021;DHT22;38907;45.562;8.856;2023-04-24T10:55:46;18.20;99.90
51021;DHT22;38907;45.562;8.856;2023-04-24T11:00:57;18.30;99.90
51021;DHT22;38907;45.562;8.856;2023-04-24T11:06:01;18.40;99.90
51021;DHT22;38907;45.562;8.856;2023-04-24T11:11:08;18.60;99.90
51021;DHT22;38907;45.562;8.856;2023-04-24T11:16:15;18.50;99.90
51021;DHT22;38907;45.562;8.856;2023-04-24T11:21:22;18.50;99.90
51021;DHT22;38907;45.562;8.856;2023-04-24T11:26:24;18.60;99.90
51021;DHT22;38907;45.562;8.856;2023-04-24T11:31:40;18.80;99.90
51021;DHT22;38907;45.562;8.856;2023-04-24T11:36:43;18.90;99.90
51021;DHT22;38907;45.562;8.856;2023-04-24T11:41:48;19.10;99.90
51021;DHT22;38907;45.562;8.856;2023-04-24T11:46:51;19.30;99.90
51021;DHT22;38907;45.562;8.856;2023-04-24T11:51:55;19.40;99.90
51021;DHT22;38907;45.562;8.856;2023-04-24T11:56:57;19.40;99.90
51021;DHT22;38907;45.562;8.856;2023-04-24T12:02:00;19.60;99.90
51021;DHT22;38907;45.562;8.856;2023-04-24T12:07:02;19.50;99.90
51021;DHT22;38907;45.562;8.856;2023-04-24T12:12:06;19.60;99.90
51021;DHT22;38907;45.562;8.856;2023-04-24T12:17:09;19.80;99.90
51021;DHT22;38907;45.562;8.856;2023-04-24T12:22:11;19.80;99.90
51021;DHT22;38907;45.562;8.856;2023-04-24T12:27:19;19.90;99.90
51021;DHT22;38907;45.562;8.856;2023-04-24T12:32:22;20.00;99.90
51021;DHT22;38907;45.562;8.856;2023-04-24T12:37:26;20.10;99.90
51021;DHT22;38907;45.562;8.856;2023-04-24T12:42:34;20.20;99.90
51021;DHT22;38907;45.562;8.856;2023-04-24T12:47:38;20.30;99.90
51021;DHT22;38907;45.562;8.856;2023-04-24T12:52:41;20.50;99.90
51021;DHT22;38907;45.562;8.856;2023-04-24T12:57:43;20.60;99.90
51021;DHT22;38907;45.562;8.856;2023-04-24T13:02:46;20.70;99.90
51021;DHT22;38907;45.562;8.856;2023-04-24T13:07:48;20.70;98.30
51021;DHT22;38907;45.562;8.856;2023-04-24T13:12:50;20.70;98.30
51021;DHT22;38907;45.562;8.856;2023-04-24T13:17:53;20.90;97.00
51021;DHT22;38907;45.562;8.856;2023-04-24T13:22:55;20.80;93.10
51021;DHT22;38907;45.562;8.856;2023-04-24T13:27:57;20.70;94.80
51021;DHT22;38907;45.562;8.856;2023-04-24T13:33:00;20.80;96.30
51021;DHT22;38907;45.562;8.856;2023-04-24T13:38:03;20.90;95.00
51021;DHT22;38907;45.562;8.856;2023-04-24T13:43:07;21.00;93.80
51021;DHT22;38907;45.562;8.856;2023-04-24T13:48:11;21.10;92.30
51021;DHT22;38907;45.562;8.856;2023-04-24T13:53:15;21.10;92.70
51021;DHT22;38907;45.562;8.856;2023-04-24T13:58:17;21.30;89.40
51021;DHT22;38907;45.562;8.856;2023-04-24T14:03:21;21.30;90.90
51021;DHT22;38907;45.562;8.856;2023-04-24T14:08:22;21.20;90.20
51021;DHT22;38907;45.562;8.856;2023-04-24T14:13:25;21.20;90.70
51021;DHT22;38907;45.562;8.856;2023-04-24T14:18:29;21.30;88.80
51021;DHT22;38907;45.562;8.856;2023-04-24T14:23:31;21.30;89.60
51021;DHT22;38907;45.562;8.856;2023-04-24T14:28:33;21.50;88.70
51021;DHT22;38907;45.562;8.856;2023-04-24T14:33:36;21.50;85.80
51021;DHT22;38907;45.562;8.856;2023-04-24T14:38:38;21.40;81.30
51021;DHT22;38907;45.562;8.856;2023-04-24T14:43:40;21.40;82.70
51021;DHT22;38907;45.562;8.856;2023-04-24T14:48:43;21.50;85.00
51021;DHT22;38907;45.562;8.856;2023-04-24T14:53:45;21.60;84.20
51021;DHT22;38907;45.562;8.856;2023-04-24T14:58:48;21.70;83.60
51021;DHT22;38907;45.562;8.856;2023-04-24T15:03:51;21.80;80.60
51021;DHT22;38907;45.562;8.856;2023-04-24T15:08:53;21.90;80.30
51021;DHT22;38907;45.562;8.856;2023-04-24T15:13:55;21.80;78.80
51021;DHT22;38907;45.562;8.856;2023-04-24T15:18:59;21.80;80.50
51021;DHT22;38907;45.562;8.856;2023-04-24T15:24:01;22.00;81.10
51021;DHT22;38907;45.562;8.856;2023-04-24T15:29:03;22.00;81.20
51021;DHT22;38907;45.562;8.856;2023-04-24T15:34:06;22.20;76.90
51021;DHT22;38907;45.562;8.856;2023-04-24T15:39:09;22.20;77.50
51021;DHT22;38907;45.562;8.856;2023-04-24T15:44:11;22.20;78.30
51021;DHT22;38907;45.562;8.856;2023-04-24T15:49:14;22.30;77.90
51021;DHT22;38907;45.562;8.856;2023-04-24T15:54:16;22.40;77.20
51021;DHT22;38907;45.562;8.856;2023-04-24T15:59:18;22.40;79.30
51021;DHT22;38907;45.562;8.856;2023-04-24T16:04:22;22.50;76.90
51021;DHT22;38907;45.562;8.856;2023-04-24T16:09:24;22.60;76.50
51021;DHT22;38907;45.562;8.856;2023-04-24T16:14:26;22.60;79.10
51021;DHT22;38907;45.562;8.856;2023-04-24T16:19:29;22.60;79.50
51021;DHT22;38907;45.562;8.856;2023-04-24T16:24:33;22.50;77.30
51021;DHT22;38907;45.562;8.856;2023-04-24T16:29:35;22.50;77.90
51021;DHT22;38907;45.562;8.856;2023-04-24T16:34:39;22.30;77.80
51021;DHT22;38907;45.562;8.856;2023-04-24T16:39:41;22.10;77.60
51021;DHT22;38907;45.562;8.856;2023-04-24T16:44:45;21.90;78.70
51021;DHT22;38907;45.562;8.856;2023-04-24T16:49:49;21.50;79.90
51021;DHT22;38907;45.562;8.856;2023-04-24T16:54:51;21.30;79.90
51021;DHT22;38907;45.562;8.856;2023-04-24T16:59:53;21.10;81.60
51021;DHT22;38907;45.562;8.856;2023-04-24T17:04:56;21.00;81.60
51021;DHT22;38907;45.562;8.856;2023-04-24T17:09:58;20.90;81.70
51021;DHT22;38907;45.562;8.856;2023-04-24T17:15:00;20.80;80.10
51021;DHT22;38907;45.562;8.856;2023-04-24T17:20:04;20.70;81.50
51021;DHT22;38907;45.562;8.856;2023-04-24T17:25:06;20.60;82.20
51021;DHT22;38907;45.562;8.856;2023-04-24T17:30:09;20.50;83.00
51021;DHT22;38907;45.562;8.856;2023-04-24T17:35:13;20.30;83.00
51021;DHT22;38907;45.562;8.856;2023-04-24T17:40:15;20.10;84.20
51021;DHT22;38907;45.562;8.856;2023-04-24T17:45:17;19.90;90.20
51021;DHT22;38907;45.562;8.856;2023-04-24T17:50:20;19.70;90.50
51021;DHT22;38907;45.562;8.856;2023-04-24T17:55:22;19.50;87.50
51021;DHT22;38907;45.562;8.856;2023-04-24T18:00:24;19.50;90.60
51021;DHT22;38907;45.562;8.856;2023-04-24T18:05:28;19.30;91.90
51021;DHT22;38907;45.562;8.856;2023-04-24T18:10:31;19.10;91.30
51021;DHT22;38907;45.562;8.856;2023-04-24T18:15:35;19.00;92.30
51021;DHT22;38907;45.562;8.856;2023-04-24T18:20:43;18.80;92.90
51021;DHT22;38907;45.562;8.856;2023-04-24T18:25:45;18.40;93.50
51021;DHT22;38907;45.562;8.856;2023-04-24T18:30:46;18.10;96.10
51021;DHT22;38907;45.562;8.856;2023-04-24T18:35:50;18.10;95.30
51021;DHT22;38907;45.562;8.856;2023-04-24T18:40:52;18.20;95.80
51021;DHT22;38907;45.562;8.856;2023-04-24T18:45:53;18.20;95.40
51021;DHT22;38907;45.562;8.856;2023-04-24T18:50:57;18.00;96.60
51021;DHT22;38907;45.562;8.856;2023-04-24T18:55:59;17.80;96.80
51021;DHT22;38907;45.562;8.856;2023-04-24T19:01:01;17.70;97.40
51021;DHT22;38907;45.562;8.856;2023-04-24T19:06:04;17.60;96.40
51021;DHT22;38907;45.562;8.856;2023-04-24T19:11:06;17.80;93.80
51021;DHT22;38907;45.562;8.856;2023-04-24T19:16:08;17.90;90.60
51021;DHT22;38907;45.562;8.856;2023-04-24T19:21:11;17.90;87.80
51021;DHT22;38907;45.562;8.856;2023-04-24T19:26:13;18.00;83.50
51021;DHT22;38907;45.562;8.856;2023-04-24T19:31:16;18.00;81.90
51021;DHT22;38907;45.562;8.856;2023-04-24T19:36:20;18.00;81.20
51021;DHT22;38907;45.562;8.856;2023-04-24T19:41:23;17.90;80.50
51021;DHT22;38907;45.562;8.856;2023-04-24T19:46:25;17.90;79.10
51021;DHT22;38907;45.562;8.856;2023-04-24T19:51:28;17.80;78.70
51021;DHT22;38907;45.562;8.856;2023-04-24T19:56:31;17.70;78.70
51021;DHT22;38907;45.562;8.856;2023-04-24T20:01:33;17.60;78.50
51021;DHT22;38907;45.562;8.856;2023-04-24T20:06:37;17.50;78.60
51021;DHT22;38907;45.562;8.856;2023-04-24T20:11:38;17.50;78.40
51021;DHT22;38907;45.562;8.856;2023-04-24T20:16:40;17.40;78.00
51021;DHT22;38907;45.562;8.856;2023-04-24T20:21:43;17.40;78.40
51021;DHT22;38907;45.562;8.856;2023-04-24T20:26:45;17.30;77.90
51021;DHT22;38907;45.562;8.856;2023-04-24T20:31:47;17.20;78.60
51021;DHT22;38907;45.562;8.856;2023-04-24T20:36:51;17.10;78.60
51021;DHT22;38907;45.562;8.856;2023-04-24T20:41:56;17.00;78.70
51021;DHT22;38907;45.562;8.856;2023-04-24T20:46:58;16.90;78.90
51021;DHT22;38907;45.562;8.856;2023-04-24T20:52:01;16.80;80.60
51021;DHT22;38907;45.562;8.856;2023-04-24T20:57:04;16.70;82.60
51021;DHT22;38907;45.562;8.856;2023-04-24T21:02:06;16.80;80.80
51021;DHT22;38907;45.562;8.856;2023-04-24T21:07:09;16.80;81.80
51021;DHT22;38907;45.562;8.856;2023-04-24T21:12:13;16.60;82.80
51021;DHT22;38907;45.562;8.856;2023-04-24T21:17:14;16.30;83.80
51021;DHT22;38907;45.562;8.856;2023-04-24T21:22:18;16.20;83.80
51021;DHT22;38907;45.562;8.856;2023-04-24T21:27:20;16.00;83.40
51021;DHT22;38907;45.562;8.856;2023-04-24T21:32:22;15.90;82.70
51021;DHT22;38907;45.562;8.856;2023-04-24T21:37:25;15.80;82.60
51021;DHT22;38907;45.562;8.856;2023-04-24T21:42:27;15.80;81.60
51021;DHT22;38907;45.562;8.856;2023-04-24T21:47:29;15.80;80.50
51021;DHT22;38907;45.562;8.856;2023-04-24T21:52:33;15.90;80.00
51021;DHT22;38907;45.562;8.856;2023-04-24T21:57:34;15.90;79.80
51021;DHT22;38907;45.562;8.856;2023-04-24T22:02:36;16.00;79.90
51021;DHT22;38907;45.562;8.856;2023-04-24T22:07:42;16.30;76.30
51021;DHT22;38907;45.562;8.856;2023-04-24T22:12:45;16.40;76.10
51021;DHT22;38907;45.562;8.856;2023-04-24T22:17:47;16.40;75.40
51021;DHT22;38907;45.562;8.856;2023-04-24T22:22:53;16.40;78.00
51021;DHT22;38907;45.562;8.856;2023-04-24T22:27:55;16.40;86.80
51021;DHT22;38907;45.562;8.856;2023-04-24T22:32:57;16.30;92.60
51021;DHT22;38907;45.562;8.856;2023-04-24T22:38:00;16.10;92.80
51021;DHT22;38907;45.562;8.856;2023-04-24T22:43:02;16.10;95.50
51021;DHT22;38907;45.562;8.856;2023-04-24T22:48:04;16.00;99.90
51021;DHT22;38907;45.562;8.856;2023-04-24T22:53:07;15.90;99.90
51021;DHT22;38907;45.562;8.856;2023-04-24T22:58:09;15.90;99.90
51021;DHT22;38907;45.562;8.856;2023-04-24T23:03:12;15.90;99.90
51021;DHT22;38907;45.562;8.856;2023-04-24T23:08:15;15.70;99.90
51021;DHT22;38907;45.562;8.856;2023-04-24T23:13:18;15.60;99.90
51021;DHT22;38907;45.562;8.856;2023-04-24T23:18:20;15.60;99.90
51021;DHT22;38907;45.562;8.856;2023-04-24T23:23:23;15.70;99.90
51021;DHT22;38907;45.562;8.856;2023-04-24T23:28:25;15.70;99.90
51021;DHT22;38907;45.562;8.856;2023-04-24T23:33:27;15.50;99.90
51021;DHT22;38907;45.562;8.856;2023-04-24T23:38:30;15.40;99.90
51021;DHT22;38907;45.562;8.856;2023-04-24T23:43:32;15.30;99.90
51021;DHT22;38907;45.562;8.856;2023-04-24T23:48:34;15.40;99.90
51021;DHT22;38907;45.562;8.856;2023-04-24T23:53:37;15.30;99.90
51021;DHT22;38907;45.562;8.856;2023-04-24T23:58:40;15.20;99.90
